sensor_id;sensor_type;location;lat;lon;timestamp;pressure;altitude;pressure_sealevel;temperature;humidity
57847;BME280;43675;50.030;21.952;2023-03-29T00:00:34;99115.48;;;-2.29;67.24
57847;BME280;43675;50.030;21.952;2023-03-29T00:03:14;99121.17;;;-2.25;67.12
57847;BME280;43675;50.030;21.952;2023-03-29T00:05:41;99121.12;;;-2.22;67.04
57847;BME280;43675;50.030;21.952;2023-03-29T00:08:07;99124.02;;;-2.21;67.13
57847;BME280;43675;50.030;21.952;2023-03-29T00:10:34;99123.47;;;-2.21;67.18
57847;BME280;43675;50.030;21.952;2023-03-29T00:13:00;99121.31;;;-2.20;67.07
57847;BME280;43675;50.030;21.952;2023-03-29T00:15:27;99121.10;;;-2.20;67.13
57847;BME280;43675;50.030;21.952;2023-03-29T00:17:53;99118.66;;;-2.20;67.05
57847;BME280;43675;50.030;21.952;2023-03-29T00:20:20;99120.35;;;-2.19;67.16
57847;BME280;43675;50.030;21.952;2023-03-29T00:22:46;99123.41;;;-2.21;66.97
57847;BME280;43675;50.030;21.952;2023-03-29T00:25:13;99121.97;;;-2.24;66.98
57847;BME280;43675;50.030;21.952;2023-03-29T00:27:39;99128.54;;;-2.27;66.77
57847;BME280;43675;50.030;21.952;2023-03-29T00:30:06;99125.20;;;-2.29;66.79
57847;BME280;43675;50.030;21.952;2023-03-29T00:32:34;99124.75;;;-2.30;67.12
57847;BME280;43675;50.030;21.952;2023-03-29T00:35:00;99126.86;;;-2.28;67.15
57847;BME280;43675;50.030;21.952;2023-03-29T00:37:27;99135.23;;;-2.28;66.92
57847;BME280;43675;50.030;21.952;2023-03-29T00:39:53;99126.92;;;-2.27;66.83
57847;BME280;43675;50.030;21.952;2023-03-29T00:42:20;99126.58;;;-2.25;66.79
57847;BME280;43675;50.030;21.952;2023-03-29T00:47:25;99120.91;;;-2.22;66.51
57847;BME280;43675;50.030;21.952;2023-03-29T00:49:52;99120.00;;;-2.19;66.53
57847;BME280;43675;50.030;21.952;2023-03-29T00:52:19;99125.84;;;-2.18;66.48
57847;BME280;43675;50.030;21.952;2023-03-29T00:54:47;99127.98;;;-2.16;66.29
57847;BME280;43675;50.030;21.952;2023-03-29T00:57:16;99126.48;;;-2.15;66.08
57847;BME280;43675;50.030;21.952;2023-03-29T00:59:44;99124.67;;;-2.12;66.24
57847;BME280;43675;50.030;21.952;2023-03-29T01:02:11;99129.18;;;-2.12;65.89
57847;BME280;43675;50.030;21.952;2023-03-29T01:04:49;99128.66;;;-2.12;65.99
57847;BME280;43675;50.030;21.952;2023-03-29T01:07:19;99126.39;;;-2.12;65.62
57847;BME280;43675;50.030;21.952;2023-03-29T01:09:51;99124.64;;;-2.12;65.80
57847;BME280;43675;50.030;21.952;2023-03-29T01:12:20;99123.70;;;-2.13;65.61
57847;BME280;43675;50.030;21.952;2023-03-29T01:14:49;99122.54;;;-2.14;65.61
57847;BME280;43675;50.030;21.952;2023-03-29T01:17:17;99116.68;;;-2.15;65.49
57847;BME280;43675;50.030;21.952;2023-03-29T01:19:48;99119.98;;;-2.17;65.38
57847;BME280;43675;50.030;21.952;2023-03-29T01:22:22;99118.80;;;-2.20;65.40
57847;BME280;43675;50.030;21.952;2023-03-29T01:33:16;99119.14;;;-2.30;65.36
57847;BME280;43675;50.030;21.952;2023-03-29T01:35:44;99117.91;;;-2.33;65.28
57847;BME280;43675;50.030;21.952;2023-03-29T01:38:20;99120.18;;;-2.39;64.99
57847;BME280;43675;50.030;21.952;2023-03-29T01:40:48;99119.85;;;-2.48;65.22
57847;BME280;43675;50.030;21.952;2023-03-29T01:43:20;99118.64;;;-2.57;65.34
57847;BME280;43675;50.030;21.952;2023-03-29T01:45:49;99126.83;;;-2.63;65.42
57847;BME280;43675;50.030;21.952;2023-03-29T01:50:52;99119.43;;;-2.71;65.47
57847;BME280;43675;50.030;21.952;2023-03-29T01:53:29;99123.45;;;-2.78;65.40
57847;BME280;43675;50.030;21.952;2023-03-29T01:56:06;99125.74;;;-2.85;65.57
57847;BME280;43675;50.030;21.952;2023-03-29T01:58:36;99123.17;;;-2.90;65.53
57847;BME280;43675;50.030;21.952;2023-03-29T02:01:04;99122.89;;;-2.95;65.43
57847;BME280;43675;50.030;21.952;2023-03-29T02:03:33;99128.19;;;-3.03;65.48
57847;BME280;43675;50.030;21.952;2023-03-29T02:06:00;99126.76;;;-3.09;65.61
57847;BME280;43675;50.030;21.952;2023-03-29T02:08:27;99123.42;;;-3.13;65.55
57847;BME280;43675;50.030;21.952;2023-03-29T02:10:54;99124.02;;;-3.21;65.56
57847;BME280;43675;50.030;21.952;2023-03-29T02:13:21;99126.84;;;-3.28;65.74
57847;BME280;43675;50.030;21.952;2023-03-29T02:15:47;99127.10;;;-3.33;65.82
57847;BME280;43675;50.030;21.952;2023-03-29T02:18:14;99129.44;;;-3.39;65.81
57847;BME280;43675;50.030;21.952;2023-03-29T02:20:42;99128.70;;;-3.43;65.80
57847;BME280;43675;50.030;21.952;2023-03-29T02:25:40;99132.86;;;-3.50;65.87
57847;BME280;43675;50.030;21.952;2023-03-29T02:28:08;99132.04;;;-3.52;65.91
57847;BME280;43675;50.030;21.952;2023-03-29T02:33:15;99132.03;;;-3.57;65.85
57847;BME280;43675;50.030;21.952;2023-03-29T02:35:48;99130.34;;;-3.60;65.89
57847;BME280;43675;50.030;21.952;2023-03-29T02:38:17;99135.60;;;-3.63;65.94
57847;BME280;43675;50.030;21.952;2023-03-29T02:40:44;99140.73;;;-3.64;65.91
57847;BME280;43675;50.030;21.952;2023-03-29T02:43:12;99140.87;;;-3.63;65.90
57847;BME280;43675;50.030;21.952;2023-03-29T02:45:40;99142.66;;;-3.66;65.79
57847;BME280;43675;50.030;21.952;2023-03-29T02:48:09;99145.00;;;-3.69;65.85
57847;BME280;43675;50.030;21.952;2023-03-29T02:50:37;99147.02;;;-3.72;65.80
57847;BME280;43675;50.030;21.952;2023-03-29T02:53:06;99148.13;;;-3.75;65.71
57847;BME280;43675;50.030;21.952;2023-03-29T02:55:34;99147.66;;;-3.79;65.63
57847;BME280;43675;50.030;21.952;2023-03-29T02:58:01;99147.73;;;-3.83;65.79
57847;BME280;43675;50.030;21.952;2023-03-29T03:00:28;99143.31;;;-3.87;65.64
57847;BME280;43675;50.030;21.952;2023-03-29T03:02:55;99150.02;;;-3.90;65.72
57847;BME280;43675;50.030;21.952;2023-03-29T03:05:21;99150.34;;;-3.92;65.70
57847;BME280;43675;50.030;21.952;2023-03-29T03:07:47;99154.61;;;-3.95;65.74
57847;BME280;43675;50.030;21.952;2023-03-29T03:10:14;99154.64;;;-3.98;65.78
57847;BME280;43675;50.030;21.952;2023-03-29T03:12:40;99160.00;;;-3.99;65.76
57847;BME280;43675;50.030;21.952;2023-03-29T03:15:07;99161.65;;;-4.00;65.76
57847;BME280;43675;50.030;21.952;2023-03-29T03:17:33;99164.61;;;-4.03;65.69
57847;BME280;43675;50.030;21.952;2023-03-29T03:20:00;99169.61;;;-4.04;65.82
57847;BME280;43675;50.030;21.952;2023-03-29T03:22:26;99173.76;;;-4.03;65.66
57847;BME280;43675;50.030;21.952;2023-03-29T03:24:53;99174.42;;;-4.03;65.74
57847;BME280;43675;50.030;21.952;2023-03-29T03:27:19;99171.11;;;-4.03;65.69
57847;BME280;43675;50.030;21.952;2023-03-29T03:29:45;99174.58;;;-4.05;65.60
57847;BME280;43675;50.030;21.952;2023-03-29T03:32:12;99174.48;;;-4.06;65.67
57847;BME280;43675;50.030;21.952;2023-03-29T03:34:38;99177.60;;;-4.08;65.66
57847;BME280;43675;50.030;21.952;2023-03-29T03:37:05;99178.67;;;-4.11;65.69
57847;BME280;43675;50.030;21.952;2023-03-29T03:39:31;99179.63;;;-4.12;65.68
57847;BME280;43675;50.030;21.952;2023-03-29T03:41:57;99179.09;;;-4.14;65.58
57847;BME280;43675;50.030;21.952;2023-03-29T03:44:24;99182.58;;;-4.19;65.63
57847;BME280;43675;50.030;21.952;2023-03-29T03:46:50;99184.66;;;-4.23;65.63
57847;BME280;43675;50.030;21.952;2023-03-29T03:49:17;99183.77;;;-4.28;65.56
57847;BME280;43675;50.030;21.952;2023-03-29T03:51:43;99183.61;;;-4.31;65.76
57847;BME280;43675;50.030;21.952;2023-03-29T03:54:09;99186.84;;;-4.32;65.70
57847;BME280;43675;50.030;21.952;2023-03-29T03:56:36;99187.87;;;-4.32;65.65
57847;BME280;43675;50.030;21.952;2023-03-29T03:59:03;99190.02;;;-4.30;65.71
57847;BME280;43675;50.030;21.952;2023-03-29T04:01:29;99191.27;;;-4.31;65.70
57847;BME280;43675;50.030;21.952;2023-03-29T04:03:56;99191.96;;;-4.35;65.53
57847;BME280;43675;50.030;21.952;2023-03-29T04:06:22;99194.36;;;-4.42;65.62
57847;BME280;43675;50.030;21.952;2023-03-29T04:08:48;99195.69;;;-4.46;65.54
57847;BME280;43675;50.030;21.952;2023-03-29T04:11:15;99198.86;;;-4.49;65.61
57847;BME280;43675;50.030;21.952;2023-03-29T04:13:41;99198.68;;;-4.51;65.63
57847;BME280;43675;50.030;21.952;2023-03-29T04:16:08;99202.64;;;-4.53;65.74
57847;BME280;43675;50.030;21.952;2023-03-29T04:18:34;99198.75;;;-4.52;65.73
57847;BME280;43675;50.030;21.952;2023-03-29T04:21:00;99196.23;;;-4.51;65.88
57847;BME280;43675;50.030;21.952;2023-03-29T04:23:27;99199.89;;;-4.48;65.74
57847;BME280;43675;50.030;21.952;2023-03-29T04:25:53;99197.39;;;-4.47;65.80
57847;BME280;43675;50.030;21.952;2023-03-29T04:28:20;99199.12;;;-4.47;65.74
57847;BME280;43675;50.030;21.952;2023-03-29T04:30:46;99199.89;;;-4.46;65.70
57847;BME280;43675;50.030;21.952;2023-03-29T04:33:13;99199.83;;;-4.45;65.79
57847;BME280;43675;50.030;21.952;2023-03-29T04:35:39;99201.23;;;-4.45;65.75
57847;BME280;43675;50.030;21.952;2023-03-29T04:38:06;99203.66;;;-4.43;65.84
57847;BME280;43675;50.030;21.952;2023-03-29T04:40:32;99203.83;;;-4.40;65.90
57847;BME280;43675;50.030;21.952;2023-03-29T04:42:59;99204.09;;;-4.34;65.87
57847;BME280;43675;50.030;21.952;2023-03-29T04:45:25;99211.76;;;-4.28;65.77
57847;BME280;43675;50.030;21.952;2023-03-29T04:47:51;99209.39;;;-4.22;65.93
57847;BME280;43675;50.030;21.952;2023-03-29T04:50:18;99208.60;;;-4.16;65.83
57847;BME280;43675;50.030;21.952;2023-03-29T04:52:44;99206.60;;;-4.10;65.88
57847;BME280;43675;50.030;21.952;2023-03-29T04:55:10;99209.02;;;-4.05;65.75
57847;BME280;43675;50.030;21.952;2023-03-29T04:57:37;99212.80;;;-4.02;65.71
57847;BME280;43675;50.030;21.952;2023-03-29T05:00:04;99213.53;;;-4.00;65.76
57847;BME280;43675;50.030;21.952;2023-03-29T05:02:30;99214.66;;;-3.94;65.80
57847;BME280;43675;50.030;21.952;2023-03-29T05:04:57;99214.59;;;-3.88;65.74
57847;BME280;43675;50.030;21.952;2023-03-29T05:07:23;99211.11;;;-3.81;65.74
57847;BME280;43675;50.030;21.952;2023-03-29T05:09:49;99215.25;;;-3.75;65.73
57847;BME280;43675;50.030;21.952;2023-03-29T05:12:16;99216.61;;;-3.70;65.67
57847;BME280;43675;50.030;21.952;2023-03-29T05:14:42;99217.71;;;-3.66;65.55
57847;BME280;43675;50.030;21.952;2023-03-29T05:17:09;99220.17;;;-3.62;65.62
57847;BME280;43675;50.030;21.952;2023-03-29T05:19:35;99217.85;;;-3.56;65.72
57847;BME280;43675;50.030;21.952;2023-03-29T05:22:01;99220.52;;;-3.50;65.83
57847;BME280;43675;50.030;21.952;2023-03-29T05:24:28;99221.81;;;-3.44;65.54
57847;BME280;43675;50.030;21.952;2023-03-29T05:26:54;99219.13;;;-3.38;65.55
57847;BME280;43675;50.030;21.952;2023-03-29T05:29:21;99216.48;;;-3.33;65.42
57847;BME280;43675;50.030;21.952;2023-03-29T05:31:47;99217.09;;;-3.27;65.44
57847;BME280;43675;50.030;21.952;2023-03-29T05:34:14;99223.08;;;-3.21;65.45
57847;BME280;43675;50.030;21.952;2023-03-29T05:36:40;99223.52;;;-3.15;65.27
57847;BME280;43675;50.030;21.952;2023-03-29T05:39:07;99220.20;;;-3.11;65.06
57847;BME280;43675;50.030;21.952;2023-03-29T05:41:33;99221.92;;;-3.06;65.12
57847;BME280;43675;50.030;21.952;2023-03-29T05:44:00;99223.42;;;-3.00;65.17
57847;BME280;43675;50.030;21.952;2023-03-29T05:46:26;99221.61;;;-2.95;64.93
57847;BME280;43675;50.030;21.952;2023-03-29T05:48:53;99223.75;;;-2.89;65.05
57847;BME280;43675;50.030;21.952;2023-03-29T05:51:19;99221.39;;;-2.83;64.85
57847;BME280;43675;50.030;21.952;2023-03-29T05:53:46;99219.40;;;-2.77;65.15
57847;BME280;43675;50.030;21.952;2023-03-29T05:56:12;99223.63;;;-2.71;64.76
57847;BME280;43675;50.030;21.952;2023-03-29T05:58:38;99219.01;;;-2.66;64.78
57847;BME280;43675;50.030;21.952;2023-03-29T06:01:09;99222.65;;;-2.61;64.59
57847;BME280;43675;50.030;21.952;2023-03-29T06:03:36;99226.64;;;-2.53;64.76
57847;BME280;43675;50.030;21.952;2023-03-29T06:06:02;99227.23;;;-2.48;64.41
57847;BME280;43675;50.030;21.952;2023-03-29T06:08:29;99229.00;;;-2.44;64.49
57847;BME280;43675;50.030;21.952;2023-03-29T06:10:56;99223.17;;;-2.39;64.40
57847;BME280;43675;50.030;21.952;2023-03-29T06:13:23;99223.86;;;-2.34;64.46
57847;BME280;43675;50.030;21.952;2023-03-29T06:15:50;99221.62;;;-2.30;64.27
57847;BME280;43675;50.030;21.952;2023-03-29T06:18:16;99229.19;;;-2.26;64.19
57847;BME280;43675;50.030;21.952;2023-03-29T06:20:42;99224.98;;;-2.21;64.19
57847;BME280;43675;50.030;21.952;2023-03-29T06:23:09;99233.55;;;-2.17;64.23
57847;BME280;43675;50.030;21.952;2023-03-29T06:25:35;99232.77;;;-2.11;64.02
57847;BME280;43675;50.030;21.952;2023-03-29T06:28:01;99235.21;;;-2.05;64.18
57847;BME280;43675;50.030;21.952;2023-03-29T06:30:28;99232.83;;;-1.99;63.86
57847;BME280;43675;50.030;21.952;2023-03-29T06:32:54;99239.56;;;-1.94;63.84
57847;BME280;43675;50.030;21.952;2023-03-29T06:35:21;99244.14;;;-1.89;63.49
57847;BME280;43675;50.030;21.952;2023-03-29T06:37:47;99242.10;;;-1.85;63.58
57847;BME280;43675;50.030;21.952;2023-03-29T06:40:16;99244.71;;;-1.81;63.40
57847;BME280;43675;50.030;21.952;2023-03-29T06:42:43;99250.70;;;-1.75;63.25
57847;BME280;43675;50.030;21.952;2023-03-29T06:45:09;99246.31;;;-1.68;63.13
57847;BME280;43675;50.030;21.952;2023-03-29T06:47:36;99248.55;;;-1.64;63.20
57847;BME280;43675;50.030;21.952;2023-03-29T06:50:02;99246.85;;;-1.58;63.02
57847;BME280;43675;50.030;21.952;2023-03-29T06:52:29;99244.94;;;-1.51;62.84
57847;BME280;43675;50.030;21.952;2023-03-29T06:54:55;99248.64;;;-1.46;63.00
57847;BME280;43675;50.030;21.952;2023-03-29T06:57:22;99251.92;;;-1.38;62.90
57847;BME280;43675;50.030;21.952;2023-03-29T06:59:48;99251.70;;;-1.31;62.71
57847;BME280;43675;50.030;21.952;2023-03-29T07:02:14;99256.66;;;-1.26;62.58
57847;BME280;43675;50.030;21.952;2023-03-29T07:04:41;99248.23;;;-1.19;62.43
57847;BME280;43675;50.030;21.952;2023-03-29T07:07:07;99249.00;;;-1.12;62.52
57847;BME280;43675;50.030;21.952;2023-03-29T07:09:34;99249.38;;;-1.04;62.23
57847;BME280;43675;50.030;21.952;2023-03-29T07:12:00;99255.23;;;-0.96;61.95
57847;BME280;43675;50.030;21.952;2023-03-29T07:14:27;99255.52;;;-0.89;61.85
57847;BME280;43675;50.030;21.952;2023-03-29T07:16:54;99257.73;;;-0.84;61.18
57847;BME280;43675;50.030;21.952;2023-03-29T07:19:20;99251.41;;;-0.80;60.95
57847;BME280;43675;50.030;21.952;2023-03-29T07:21:47;99252.70;;;-0.76;61.08
57847;BME280;43675;50.030;21.952;2023-03-29T07:24:14;99257.05;;;-0.72;60.97
57847;BME280;43675;50.030;21.952;2023-03-29T07:26:40;99257.57;;;-0.66;60.80
57847;BME280;43675;50.030;21.952;2023-03-29T07:29:06;99258.52;;;-0.60;60.38
57847;BME280;43675;50.030;21.952;2023-03-29T07:31:34;99256.70;;;-0.56;60.18
57847;BME280;43675;50.030;21.952;2023-03-29T07:34:01;99259.36;;;-0.52;59.49
57847;BME280;43675;50.030;21.952;2023-03-29T07:36:27;99259.11;;;-0.47;59.39
57847;BME280;43675;50.030;21.952;2023-03-29T07:38:54;99259.40;;;-0.44;59.36
57847;BME280;43675;50.030;21.952;2023-03-29T07:41:20;99261.04;;;-0.38;59.39
57847;BME280;43675;50.030;21.952;2023-03-29T07:43:47;99255.52;;;-0.32;59.44
57847;BME280;43675;50.030;21.952;2023-03-29T07:46:13;99252.80;;;-0.25;59.34
57847;BME280;43675;50.030;21.952;2023-03-29T07:48:40;99263.13;;;-0.18;59.26
57847;BME280;43675;50.030;21.952;2023-03-29T07:51:06;99260.09;;;-0.14;58.78
57847;BME280;43675;50.030;21.952;2023-03-29T07:53:33;99263.11;;;-0.10;58.30
57847;BME280;43675;50.030;21.952;2023-03-29T07:55:59;99256.10;;;-0.06;58.07
57847;BME280;43675;50.030;21.952;2023-03-29T07:58:26;99254.67;;;-0.04;57.52
57847;BME280;43675;50.030;21.952;2023-03-29T08:00:52;99257.02;;;-0.01;57.52
57847;BME280;43675;50.030;21.952;2023-03-29T08:03:18;99263.39;;;0.05;57.65
57847;BME280;43675;50.030;21.952;2023-03-29T08:05:45;99262.41;;;0.10;56.54
57847;BME280;43675;50.030;21.952;2023-03-29T08:08:11;99261.39;;;0.14;56.48
57847;BME280;43675;50.030;21.952;2023-03-29T08:10:38;99259.42;;;0.18;56.75
57847;BME280;43675;50.030;21.952;2023-03-29T08:13:05;99264.76;;;0.25;56.93
57847;BME280;43675;50.030;21.952;2023-03-29T08:15:32;99264.98;;;0.31;56.74
57847;BME280;43675;50.030;21.952;2023-03-29T08:18:01;99263.79;;;0.36;56.29
57847;BME280;43675;50.030;21.952;2023-03-29T08:20:28;99254.70;;;0.41;56.06
57847;BME280;43675;50.030;21.952;2023-03-29T08:22:54;99254.63;;;0.46;55.93
57847;BME280;43675;50.030;21.952;2023-03-29T08:25:21;99251.05;;;0.53;56.06
57847;BME280;43675;50.030;21.952;2023-03-29T08:27:47;99248.98;;;0.60;56.00
57847;BME280;43675;50.030;21.952;2023-03-29T08:30:13;99249.71;;;0.68;55.56
57847;BME280;43675;50.030;21.952;2023-03-29T08:32:40;99245.29;;;0.73;55.51
57847;BME280;43675;50.030;21.952;2023-03-29T08:35:07;99247.21;;;0.79;55.49
57847;BME280;43675;50.030;21.952;2023-03-29T08:37:34;99253.27;;;0.86;55.52
57847;BME280;43675;50.030;21.952;2023-03-29T08:40:00;99252.60;;;0.89;54.87
57847;BME280;43675;50.030;21.952;2023-03-29T08:42:31;99254.19;;;0.91;54.53
57847;BME280;43675;50.030;21.952;2023-03-29T08:50:26;99249.08;;;0.93;53.69
57847;BME280;43675;50.030;21.952;2023-03-29T08:52:59;99245.32;;;0.94;52.78
57847;BME280;43675;50.030;21.952;2023-03-29T08:55:30;99241.75;;;0.94;52.61
57847;BME280;43675;50.030;21.952;2023-03-29T08:57:58;99236.85;;;0.98;52.93
57847;BME280;43675;50.030;21.952;2023-03-29T09:00:32;99240.66;;;1.03;53.32
57847;BME280;43675;50.030;21.952;2023-03-29T09:03:00;99238.70;;;1.10;53.54
57847;BME280;43675;50.030;21.952;2023-03-29T09:05:28;99236.27;;;1.18;53.42
57847;BME280;43675;50.030;21.952;2023-03-29T09:07:58;99238.24;;;1.21;53.26
57847;BME280;43675;50.030;21.952;2023-03-29T09:10:27;99238.33;;;1.26;53.29
57847;BME280;43675;50.030;21.952;2023-03-29T09:12:59;99237.77;;;1.30;52.94
57847;BME280;43675;50.030;21.952;2023-03-29T09:15:36;99231.23;;;1.35;52.87
57847;BME280;43675;50.030;21.952;2023-03-29T09:18:21;99242.61;;;1.42;52.83
57847;BME280;43675;50.030;21.952;2023-03-29T09:25:59;99236.32;;;1.51;52.20
57847;BME280;43675;50.030;21.952;2023-03-29T09:28:34;99241.12;;;1.52;52.11
57847;BME280;43675;50.030;21.952;2023-03-29T09:31:11;99237.36;;;1.55;52.19
57847;BME280;43675;50.030;21.952;2023-03-29T09:33:40;99233.58;;;1.56;52.10
57847;BME280;43675;50.030;21.952;2023-03-29T09:36:23;99229.98;;;1.58;52.34
57847;BME280;43675;50.030;21.952;2023-03-29T09:38:50;99232.28;;;1.62;52.20
57847;BME280;43675;50.030;21.952;2023-03-29T09:41:27;99226.92;;;1.68;52.30
57847;BME280;43675;50.030;21.952;2023-03-29T09:43:57;99237.90;;;1.73;51.60
57847;BME280;43675;50.030;21.952;2023-03-29T09:46:27;99223.94;;;1.72;50.93
57847;BME280;43675;50.030;21.952;2023-03-29T09:48:55;99236.81;;;1.75;50.62
57847;BME280;43675;50.030;21.952;2023-03-29T09:51:23;99229.84;;;1.78;50.40
57847;BME280;43675;50.030;21.952;2023-03-29T09:53:51;99228.20;;;1.77;49.69
57847;BME280;43675;50.030;21.952;2023-03-29T09:56:19;99221.09;;;1.77;49.50
57847;BME280;43675;50.030;21.952;2023-03-29T09:58:46;99222.79;;;1.80;49.64
57847;BME280;43675;50.030;21.952;2023-03-29T10:01:13;99226.17;;;1.83;49.61
57847;BME280;43675;50.030;21.952;2023-03-29T10:03:40;99223.23;;;1.86;49.64
57847;BME280;43675;50.030;21.952;2023-03-29T10:06:08;99222.80;;;1.89;49.42
57847;BME280;43675;50.030;21.952;2023-03-29T10:11:02;99219.55;;;1.97;49.84
57847;BME280;43675;50.030;21.952;2023-03-29T10:13:32;99214.67;;;2.06;49.99
57847;BME280;43675;50.030;21.952;2023-03-29T10:16:07;99210.67;;;2.12;49.93
57847;BME280;43675;50.030;21.952;2023-03-29T10:18:40;99219.86;;;2.16;49.35
57847;BME280;43675;50.030;21.952;2023-03-29T10:21:11;99217.24;;;2.19;49.24
57847;BME280;43675;50.030;21.952;2023-03-29T10:23:38;99223.14;;;2.22;49.77
57847;BME280;43675;50.030;21.952;2023-03-29T10:26:05;99223.05;;;2.24;49.53
57847;BME280;43675;50.030;21.952;2023-03-29T10:28:32;99216.73;;;2.24;48.93
57847;BME280;43675;50.030;21.952;2023-03-29T10:30:59;99211.02;;;2.25;48.84
57847;BME280;43675;50.030;21.952;2023-03-29T10:33:28;99214.41;;;2.26;49.21
57847;BME280;43675;50.030;21.952;2023-03-29T10:35:55;99208.29;;;2.29;49.00
57847;BME280;43675;50.030;21.952;2023-03-29T10:38:23;99211.73;;;2.33;49.21
57847;BME280;43675;50.030;21.952;2023-03-29T10:40:52;99207.98;;;2.38;49.22
57847;BME280;43675;50.030;21.952;2023-03-29T10:43:22;99213.08;;;2.43;49.09
57847;BME280;43675;50.030;21.952;2023-03-29T10:45:54;99201.92;;;2.47;48.65
57847;BME280;43675;50.030;21.952;2023-03-29T10:48:28;99196.52;;;2.50;48.98
57847;BME280;43675;50.030;21.952;2023-03-29T10:50:59;99198.19;;;2.55;49.24
57847;BME280;43675;50.030;21.952;2023-03-29T10:53:27;99196.22;;;2.57;49.18
57847;BME280;43675;50.030;21.952;2023-03-29T11:01:21;99204.39;;;2.68;47.95
57847;BME280;43675;50.030;21.952;2023-03-29T11:04:06;99197.96;;;2.69;47.86
57847;BME280;43675;50.030;21.952;2023-03-29T11:06:39;99189.89;;;2.72;47.90
57847;BME280;43675;50.030;21.952;2023-03-29T11:11:46;99191.56;;;2.80;47.25
57847;BME280;43675;50.030;21.952;2023-03-29T11:15:00;99183.55;;;2.84;47.21
57847;BME280;43675;50.030;21.952;2023-03-29T11:22:01;99180.67;;;3.09;47.24
57847;BME280;43675;50.030;21.952;2023-03-29T11:37:27;99157.30;;;3.57;47.05
57847;BME280;43675;50.030;21.952;2023-03-29T11:42:25;99157.60;;;3.73;46.66
57847;BME280;43675;50.030;21.952;2023-03-29T11:44:53;99145.83;;;3.79;46.15
57847;BME280;43675;50.030;21.952;2023-03-29T11:47:40;99143.94;;;3.87;46.35
57847;BME280;43675;50.030;21.952;2023-03-29T11:50:16;99151.90;;;3.95;46.44
57847;BME280;43675;50.030;21.952;2023-03-29T11:52:48;99145.42;;;4.05;46.53
57847;BME280;43675;50.030;21.952;2023-03-29T11:55:17;99146.80;;;4.11;46.76
57847;BME280;43675;50.030;21.952;2023-03-29T11:57:52;99139.58;;;4.19;46.78
57847;BME280;43675;50.030;21.952;2023-03-29T12:00:22;99142.05;;;4.26;46.34
57847;BME280;43675;50.030;21.952;2023-03-29T12:02:54;99142.73;;;4.33;45.68
57847;BME280;43675;50.030;21.952;2023-03-29T12:05:37;99131.51;;;4.37;45.36
57847;BME280;43675;50.030;21.952;2023-03-29T12:08:27;99130.87;;;4.39;45.42
57847;BME280;43675;50.030;21.952;2023-03-29T12:13:41;99141.27;;;4.53;45.27
57847;BME280;43675;50.030;21.952;2023-03-29T12:16:14;99129.63;;;4.52;44.62
57847;BME280;43675;50.030;21.952;2023-03-29T12:18:43;99129.43;;;4.54;44.96
57847;BME280;43675;50.030;21.952;2023-03-29T12:21:12;99130.96;;;4.58;44.61
57847;BME280;43675;50.030;21.952;2023-03-29T12:23:40;99129.99;;;4.60;44.42
57847;BME280;43675;50.030;21.952;2023-03-29T12:26:18;99123.44;;;4.64;44.09
57847;BME280;43675;50.030;21.952;2023-03-29T12:28:54;99117.54;;;4.69;44.26
57847;BME280;43675;50.030;21.952;2023-03-29T12:39:04;99114.44;;;4.83;43.29
57847;BME280;43675;50.030;21.952;2023-03-29T12:41:34;99115.00;;;4.86;43.37
57847;BME280;43675;50.030;21.952;2023-03-29T12:44:01;99117.83;;;4.87;42.40
57847;BME280;43675;50.030;21.952;2023-03-29T12:46:32;99113.68;;;4.90;42.46
57847;BME280;43675;50.030;21.952;2023-03-29T12:49:00;99111.64;;;4.92;42.60
57847;BME280;43675;50.030;21.952;2023-03-29T12:51:29;99115.36;;;4.95;42.76
57847;BME280;43675;50.030;21.952;2023-03-29T12:54:11;99108.05;;;4.99;42.90
57847;BME280;43675;50.030;21.952;2023-03-29T12:56:40;99111.66;;;5.03;43.19
57847;BME280;43675;50.030;21.952;2023-03-29T13:01:37;99115.34;;;5.13;42.69
57847;BME280;43675;50.030;21.952;2023-03-29T13:04:17;99100.50;;;5.15;42.39
57847;BME280;43675;50.030;21.952;2023-03-29T13:09:24;99098.64;;;5.26;42.09
57847;BME280;43675;50.030;21.952;2023-03-29T13:12:02;99096.26;;;5.25;42.17
57847;BME280;43675;50.030;21.952;2023-03-29T13:14:30;99103.16;;;5.28;41.93
57847;BME280;43675;50.030;21.952;2023-03-29T13:17:04;99102.39;;;5.30;41.70
57847;BME280;43675;50.030;21.952;2023-03-29T13:22:19;99100.53;;;5.30;41.40
57847;BME280;43675;50.030;21.952;2023-03-29T13:24:53;99101.11;;;5.34;41.60
57847;BME280;43675;50.030;21.952;2023-03-29T13:30:06;99092.82;;;5.37;41.50
57847;BME280;43675;50.030;21.952;2023-03-29T13:35:19;99094.71;;;5.40;41.37
57847;BME280;43675;50.030;21.952;2023-03-29T13:37:53;99089.64;;;5.43;41.00
57847;BME280;43675;50.030;21.952;2023-03-29T13:40:30;99091.66;;;5.45;40.96
57847;BME280;43675;50.030;21.952;2023-03-29T13:43:06;99091.91;;;5.49;41.26
57847;BME280;43675;50.030;21.952;2023-03-29T13:45:34;99089.58;;;5.52;41.61
57847;BME280;43675;50.030;21.952;2023-03-29T13:50:35;99089.60;;;5.63;41.92
57847;BME280;43675;50.030;21.952;2023-03-29T13:55:42;99090.23;;;5.68;41.63
57847;BME280;43675;50.030;21.952;2023-03-29T13:58:14;99083.54;;;5.70;41.55
57847;BME280;43675;50.030;21.952;2023-03-29T14:00:51;99082.02;;;5.73;41.80
57847;BME280;43675;50.030;21.952;2023-03-29T14:03:20;99091.10;;;5.77;41.63
57847;BME280;43675;50.030;21.952;2023-03-29T14:05:50;99084.61;;;5.78;41.72
57847;BME280;43675;50.030;21.952;2023-03-29T14:08:26;99082.95;;;5.83;41.92
57847;BME280;43675;50.030;21.952;2023-03-29T14:10:54;99088.91;;;5.87;41.94
57847;BME280;43675;50.030;21.952;2023-03-29T14:13:22;99080.23;;;5.87;41.83
57847;BME280;43675;50.030;21.952;2023-03-29T14:15:52;99082.69;;;5.85;41.64
57847;BME280;43675;50.030;21.952;2023-03-29T14:18:21;99080.16;;;5.87;41.65
57847;BME280;43675;50.030;21.952;2023-03-29T14:20:49;99076.02;;;5.88;41.76
57847;BME280;43675;50.030;21.952;2023-03-29T14:23:18;99080.08;;;5.89;42.04
57847;BME280;43675;50.030;21.952;2023-03-29T14:25:45;99080.45;;;5.91;42.18
57847;BME280;43675;50.030;21.952;2023-03-29T14:30:44;99076.95;;;5.93;42.23
57847;BME280;43675;50.030;21.952;2023-03-29T14:33:12;99071.84;;;5.95;42.28